Time;durP1;ratioP1;P1;durP2;ratioP2;P2;SDS_P1;SDS_P2;PMS_P1;PMS_P2;Temp;Humidity;BMP_temperature;BMP_pressure;BME280_temperature;BME280_humidity;BME280_pressure;Samples;Min_cycle;Max_cycle;Signal;HPM_P1;HPM_P2
2022/12/03 00:00:28;;;;;;;22.43;15.90;;;;;;;2.89;100.00;96480.69;5055144;28;20234;-64
2022/12/03 00:02:54;;;;;;;22.33;15.53;;;;;;;2.92;100.00;96471.81;5057986;28;20210;-64
2022/12/03 00:05:21;;;;;;;23.47;16.63;;;;;;;2.94;100.00;96476.00;5070672;28;20210;-64
2022/12/03 00:07:48;;;;;;;21.13;15.50;;;;;;;3.02;100.00;96472.88;5061361;28;20206;-64
2022/12/03 00:10:17;;;;;;;25.33;16.73;;;;;;;3.01;100.00;96472.03;5061691;28;20255;-64
2022/12/03 00:12:44;;;;;;;22.57;16.40;;;;;;;3.08;100.00;96474.28;5057190;28;20214;-64
2022/12/03 00:15:11;;;;;;;24.63;16.13;;;;;;;3.07;100.00;96475.19;5056590;28;20203;-65
2022/12/03 00:17:39;;;;;;;21.73;16.53;;;;;;;3.15;100.00;96476.38;5058761;28;20202;-63
2022/12/03 00:20:08;;;;;;;24.93;16.73;;;;;;;3.12;100.00;96473.13;5055842;28;20237;-64
2022/12/03 00:22:35;;;;;;;23.87;17.43;;;;;;;3.16;100.00;96469.34;5055711;28;20215;-63
2022/12/03 00:25:01;;;;;;;24.83;17.23;;;;;;;3.18;100.00;96477.94;5054180;28;20206;-63
2022/12/03 00:27:28;;;;;;;25.47;17.60;;;;;;;3.21;100.00;96477.72;5054296;28;20222;-63
2022/12/03 00:29:54;;;;;;;23.80;16.60;;;;;;;3.30;100.00;96467.50;5053751;28;20199;-63
2022/12/03 00:32:21;;;;;;;21.60;16.10;;;;;;;3.35;100.00;96469.81;5054294;28;20540;-63
2022/12/03 00:34:49;;;;;;;20.63;15.73;;;;;;;3.38;100.00;96465.22;5054528;28;20210;-62
2022/12/03 00:37:15;;;;;;;21.70;15.93;;;;;;;3.40;100.00;96472.97;5058809;28;20273;-63
2022/12/03 00:39:42;;;;;;;22.43;16.80;;;;;;;3.38;100.00;96470.44;5054079;28;20211;-64
2022/12/03 00:42:08;;;;;;;21.73;15.63;;;;;;;3.44;100.00;96463.94;5063084;28;20204;-63
2022/12/03 00:44:35;;;;;;;21.83;16.63;;;;;;;3.41;100.00;96465.00;5064448;28;20561;-63
2022/12/03 00:47:01;;;;;;;25.07;16.40;;;;;;;3.51;100.00;96466.03;5061679;28;20557;-64
2022/12/03 00:49:28;;;;;;;22.30;16.20;;;;;;;3.55;100.00;96464.06;5057049;28;20207;-63
2022/12/03 00:51:56;;;;;;;20.67;15.97;;;;;;;3.57;100.00;96464.81;5053968;28;20221;-63
2022/12/03 00:54:22;;;;;;;23.27;17.17;;;;;;;3.51;100.00;96471.25;5063146;28;20209;-63
2022/12/03 00:56:49;;;;;;;20.97;16.90;;;;;;;3.40;100.00;96471.16;5064615;28;20218;-63
2022/12/03 00:59:15;;;;;;;20.57;15.43;;;;;;;3.43;100.00;96460.53;5061957;28;20694;-64
2022/12/03 01:01:42;;;;;;;22.50;16.70;;;;;;;3.53;100.00;96468.56;5066251;28;20230;-64
2022/12/03 01:04:08;;;;;;;19.40;15.60;;;;;;;3.57;100.00;96474.41;5066199;28;20207;-63
2022/12/03 01:06:35;;;;;;;20.77;15.43;;;;;;;3.51;100.00;96470.44;5072047;28;20202;-63
2022/12/03 01:09:03;;;;;;;22.33;15.97;;;;;;;3.54;100.00;96467.63;5074980;28;20239;-63
2022/12/03 01:11:40;;;;;;;22.77;16.17;;;;;;;3.55;100.00;96465.81;5077317;28;20207;-63
2022/12/03 01:14:07;;;;;;;21.87;15.77;;;;;;;3.57;100.00;96467.41;5068797;28;20210;-63
2022/12/03 01:16:34;;;;;;;19.93;15.47;;;;;;;3.65;100.00;96470.31;5057376;28;20210;-63
2022/12/03 01:19:01;;;;;;;19.47;15.07;;;;;;;3.65;100.00;96470.31;5057237;28;20207;-63
2022/12/03 01:21:27;;;;;;;21.13;15.87;;;;;;;3.67;100.00;96470.22;5056405;28;20242;-63
2022/12/03 01:23:54;;;;;;;21.00;15.03;;;;;;;3.63;100.00;96477.44;5057247;28;20218;-63
2022/12/03 01:26:22;;;;;;;21.13;15.00;;;;;;;3.70;100.00;96475.25;5057199;28;20547;-62
2022/12/03 01:28:50;;;;;;;20.43;15.97;;;;;;;3.63;100.00;96487.06;5058120;28;20574;-64
2022/12/03 01:34:00;;;;;;;20.73;14.80;;;;;;;3.57;100.00;96477.88;5057367;28;20225;-63
2022/12/03 01:36:27;;;;;;;19.80;15.27;;;;;;;3.64;100.00;96479.13;5061714;28;20235;-63
2022/12/03 01:38:53;;;;;;;19.27;15.10;;;;;;;3.68;100.00;96479.75;5057613;28;20214;-63
2022/12/03 01:41:22;;;;;;;20.43;15.47;;;;;;;3.69;100.00;96477.03;5057282;28;20227;-64
2022/12/03 01:43:49;;;;;;;18.27;14.87;;;;;;;3.70;100.00;96475.25;5056754;28;20214;-62
2022/12/03 01:46:19;;;;;;;23.40;15.30;;;;;;;3.74;100.00;96488.00;5063623;28;20207;-64
2022/12/03 01:48:46;;;;;;;18.50;14.60;;;;;;;3.70;100.00;96491.78;5056477;28;20205;-63
2022/12/03 01:51:13;;;;;;;18.60;14.87;;;;;;;3.73;100.00;96495.94;5056415;28;20207;-63
2022/12/03 01:53:40;;;;;;;19.57;14.33;;;;;;;3.69;100.00;96490.09;5057006;28;20546;-64
2022/12/03 01:56:07;;;;;;;17.73;13.83;;;;;;;3.69;100.00;96497.94;5057207;28;20209;-63
2022/12/03 01:58:35;;;;;;;17.10;13.97;;;;;;;3.68;100.00;96498.91;5056541;28;20233;-62
2022/12/03 02:01:06;;;;;;;18.17;14.73;;;;;;;3.62;100.00;96494.06;5056618;28;20226;-63
2022/12/03 02:03:33;;;;;;;18.30;14.43;;;;;;;3.67;100.00;96494.59;5056155;28;20628;-63
2022/12/03 02:05:59;;;;;;;19.33;14.67;;;;;;;3.58;100.00;96489.97;5055660;28;20543;-63
2022/12/03 02:08:30;;;;;;;18.97;14.10;;;;;;;3.58;100.00;96486.56;5056616;28;20210;-63
2022/12/03 02:10:58;;;;;;;19.13;15.00;;;;;;;3.58;100.00;96487.38;5056570;28;20211;-63
2022/12/03 02:13:25;;;;;;;18.93;14.17;;;;;;;3.63;100.00;96487.06;5056584;28;20219;-63
2022/12/03 02:15:53;;;;;;;18.33;13.77;;;;;;;3.63;100.00;96485.28;5056503;28;20218;-64
2022/12/03 02:18:19;;;;;;;19.83;14.87;;;;;;;3.55;100.00;96479.75;5056611;28;20210;-63
2022/12/03 02:20:53;;;;;;;17.27;13.50;;;;;;;3.56;100.00;96473.56;5055679;28;20238;-64
2022/12/03 02:23:26;;;;;;;18.10;14.37;;;;;;;3.57;100.00;96480.50;5056010;28;20261;-64
2022/12/03 02:25:54;;;;;;;17.73;14.60;;;;;;;3.57;100.00;96487.50;5056180;28;20207;-64
2022/12/03 02:28:21;;;;;;;18.03;14.10;;;;;;;3.57;100.00;96487.50;5056332;28;20214;-62
2022/12/03 02:30:47;;;;;;;18.67;14.30;;;;;;;3.55;100.00;96482.34;5058248;28;20214;-63
2022/12/03 02:33:14;;;;;;;18.43;14.07;;;;;;;3.53;100.00;96479.03;5062171;28;20206;-63
2022/12/03 02:35:41;;;;;;;17.00;13.70;;;;;;;3.51;100.00;96479.13;5058528;28;20206;-63
2022/12/03 02:38:11;;;;;;;17.67;13.90;;;;;;;3.48;100.00;96476.72;5056805;28;20239;-62
2022/12/03 02:40:38;;;;;;;16.40;13.27;;;;;;;3.48;100.00;96470.63;5056051;28;20261;-64
2022/12/03 02:43:05;;;;;;;18.63;14.60;;;;;;;3.55;100.00;96476.28;5055805;28;20202;-63
2022/12/03 02:45:34;;;;;;;19.40;14.50;;;;;;;3.52;100.00;96482.56;5062643;28;20233;-63
2022/12/03 02:48:03;;;;;;;19.43;14.90;;;;;;;3.53;100.00;96479.03;5056025;28;20214;-63
2022/12/03 02:50:35;;;;;;;18.17;13.93;;;;;;;3.53;100.00;96468.56;5056346;28;20195;-63
2022/12/03 02:53:04;;;;;;;18.70;13.70;;;;;;;3.55;100.00;96466.66;5068777;28;20296;-64
2022/12/03 02:55:32;;;;;;;17.43;14.53;;;;;;;3.53;100.00;96475.56;5056566;28;20214;-63
2022/12/03 02:57:58;;;;;;;20.20;14.90;;;;;;;3.52;100.00;96474.72;5056098;28;20207;-62
2022/12/03 03:00:26;;;;;;;17.73;13.93;;;;;;;3.61;100.00;96474.13;5056588;28;20203;-63
2022/12/03 03:02:53;;;;;;;18.93;14.70;;;;;;;3.63;100.00;96480.06;5055408;28;20230;-63
2022/12/03 03:05:22;;;;;;;17.67;14.73;;;;;;;3.63;100.00;96476.59;5055066;28;20209;-63
2022/12/03 03:07:48;;;;;;;16.53;14.07;;;;;;;3.62;100.00;96478.38;5055636;28;20218;-63
2022/12/03 03:10:20;;;;;;;18.60;14.47;;;;;;;3.58;100.00;96476.91;5055052;28;20556;-63
2022/12/03 03:12:46;;;;;;;18.73;14.80;;;;;;;3.59;100.00;96470.75;5055492;28;20219;-63
2022/12/03 03:15:13;;;;;;;19.17;14.60;;;;;;;3.59;100.00;96472.53;5054523;28;20218;-63
2022/12/03 03:17:42;;;;;;;19.60;15.37;;;;;;;3.58;100.00;96476.91;5062223;28;20654;-63
2022/12/03 03:20:10;;;;;;;20.20;16.20;;;;;;;3.54;100.00;96475.47;5054353;28;20584;-63
2022/12/03 03:22:38;;;;;;;18.03;15.00;;;;;;;3.57;100.00;96472.66;5055247;28;20276;-63
2022/12/03 03:25:07;;;;;;;19.23;15.60;;;;;;;3.50;100.00;96471.38;5054917;28;20214;-62
2022/12/03 03:27:34;;;;;;;16.30;14.43;;;;;;;3.44;100.00;96469.16;5055279;28;20624;-63
2022/12/03 03:30:01;;;;;;;19.30;15.40;;;;;;;3.35;100.00;96467.19;5054755;28;20218;-64
2022/12/03 03:32:29;;;;;;;17.77;14.07;;;;;;;3.41;100.00;96467.59;5055282;28;20218;-63
2022/12/03 03:34:57;;;;;;;19.10;14.70;;;;;;;3.37;100.00;96473.13;5054303;28;20297;-63
2022/12/03 03:37:24;;;;;;;20.47;15.73;;;;;;;3.32;100.00;96467.41;5057631;28;20241;-64
2022/12/03 03:39:50;;;;;;;18.43;15.03;;;;;;;3.30;100.00;96469.25;5054822;28;20237;-63
2022/12/03 03:42:17;;;;;;;18.90;14.73;;;;;;;3.33;100.00;96469.09;5055129;28;20233;-63
2022/12/03 03:44:44;;;;;;;16.37;13.70;;;;;;;3.33;100.00;96471.69;5054937;28;20207;-63
2022/12/03 03:47:11;;;;;;;19.90;15.53;;;;;;;3.29;100.00;96476.28;5061582;28;20517;-63
2022/12/03 03:49:38;;;;;;;20.33;15.73;;;;;;;3.25;100.00;96466.97;5054862;28;20214;-63
2022/12/03 03:52:08;;;;;;;21.30;14.73;;;;;;;3.28;100.00;96474.63;5054167;28;20653;-63
2022/12/03 03:54:35;;;;;;;19.77;15.73;;;;;;;3.29;100.00;96470.22;5054686;28;20215;-63
2022/12/03 03:57:02;;;;;;;18.53;15.00;;;;;;;3.34;100.00;96471.56;5054475;28;20289;-63
2022/12/03 03:59:29;;;;;;;18.93;15.37;;;;;;;3.25;100.00;96473.97;5064114;28;20557;-63
2022/12/03 04:01:56;;;;;;;21.13;15.60;;;;;;;3.33;100.00;96471.69;5060533;28;20566;-64
2022/12/03 04:04:25;;;;;;;19.33;14.77;;;;;;;3.33;100.00;96474.31;5054666;28;20207;-63
2022/12/03 04:06:52;;;;;;;18.40;14.73;;;;;;;3.31;100.00;96478.78;5054367;28;20268;-63
2022/12/03 04:09:19;;;;;;;17.87;15.03;;;;;;;3.35;100.00;96475.03;5054557;28;20215;-64
2022/12/03 04:14:30;;;;;;;19.03;15.17;;;;;;;3.20;100.00;96474.28;5054319;28;20229;-63
2022/12/03 04:16:57;;;;;;;18.67;14.60;;;;;;;3.30;100.00;96471.88;5054214;28;20214;-63
2022/12/03 04:19:23;;;;;;;20.20;15.40;;;;;;;3.24;100.00;96472.28;5063267;28;20209;-63
2022/12/03 04:24:35;;;;;;;21.57;15.53;;;;;;;2.96;100.00;96475.91;5054165;28;20268;-64
2022/12/03 04:29:46;;;;;;;18.50;14.73;;;;;;;3.08;100.00;96469.88;5058345;28;20541;-62
2022/12/03 04:37:46;;;;;;;18.10;14.83;;;;;;;2.94;100.00;96470.78;5057941;28;20262;-63
2022/12/03 04:42:54;;;;;;;18.80;14.77;;;;;;;3.04;100.00;96470.19;5059269;28;20226;-63
2022/12/03 04:45:21;;;;;;;19.30;15.03;;;;;;;3.07;100.00;96459.53;5064362;28;20627;-63
2022/12/03 04:47:47;;;;;;;19.57;14.27;;;;;;;3.07;100.00;96467.38;5060889;28;20203;-63
2022/12/03 04:50:14;;;;;;;19.83;14.27;;;;;;;2.93;100.00;96468.28;5060914;28;20206;-63
2022/12/03 04:52:41;;;;;;;19.93;15.50;;;;;;;2.99;100.00;96468.72;5070530;28;20530;-63
2022/12/03 04:55:08;;;;;;;23.57;15.43;;;;;;;2.98;100.00;96467.03;5073673;28;20211;-64
2022/12/03 04:57:36;;;;;;;18.43;14.27;;;;;;;3.04;100.00;96464.97;5061015;28;20209;-63
2022/12/03 05:00:03;;;;;;;18.93;14.67;;;;;;;3.00;100.00;96475.63;5057613;28;20203;-63
2022/12/03 05:02:30;;;;;;;16.47;13.73;;;;;;;3.06;100.00;96473.50;5059150;28;20667;-63
2022/12/03 05:04:56;;;;;;;16.10;13.60;;;;;;;3.13;100.00;96477.41;5057479;28;20214;-64
2022/12/03 05:07:23;;;;;;;16.63;14.37;;;;;;;3.06;100.00;96476.13;5057871;28;20222;-63
2022/12/03 05:09:49;;;;;;;23.07;16.27;;;;;;;2.94;100.00;96476.00;5064330;28;20215;-64
2022/12/03 05:12:16;;;;;;;17.90;14.20;;;;;;;2.97;100.00;96462.75;5066637;28;20207;-64
2022/12/03 05:14:44;;;;;;;18.90;14.90;;;;;;;2.96;100.00;96470.69;5067474;28;20207;-62
2022/12/03 05:17:10;;;;;;;18.10;13.83;;;;;;;2.99;100.00;96462.66;5070837;28;20210;-63
2022/12/03 05:22:22;;;;;;;16.53;13.40;;;;;;;2.76;100.00;96465.94;5062771;28;20251;-63
2022/12/03 05:24:48;;;;;;;19.00;13.87;;;;;;;2.76;100.00;96474.63;5058169;28;20214;-63
2022/12/03 05:27:16;;;;;;;22.33;13.67;;;;;;;2.81;100.00;96469.91;5058281;28;20211;-61
2022/12/03 05:29:44;;;;;;;19.03;13.73;;;;;;;2.69;100.00;96481.16;5057891;28;20202;-63
2022/12/03 05:32:11;;;;;;;18.60;12.83;;;;;;;2.69;100.00;96460.28;5058991;28;20210;-64
2022/12/03 05:34:38;;;;;;;18.50;14.60;;;;;;;2.68;100.00;96458.59;5066249;28;20213;-64
2022/12/03 05:37:04;;;;;;;17.93;14.00;;;;;;;2.70;100.00;96456.72;5071687;28;20238;-64
2022/12/03 05:39:31;;;;;;;17.20;12.97;;;;;;;2.78;100.00;96457.06;5061401;28;20221;-65
2022/12/03 05:44:42;;;;;;;17.87;13.70;;;;;;;2.82;100.00;96465.53;5062537;28;20206;-64
2022/12/03 05:47:10;;;;;;;15.77;12.60;;;;;;;2.86;100.00;96457.41;5061163;28;20207;-64
2022/12/03 05:49:36;;;;;;;18.07;13.70;;;;;;;2.83;100.00;96470.66;5061174;28;20214;-63
2022/12/03 05:52:03;;;;;;;19.17;14.27;;;;;;;2.69;100.00;96464.66;5061558;28;20612;-64
2022/12/03 05:54:30;;;;;;;17.27;13.37;;;;;;;2.80;100.00;96468.22;5060402;28;20225;-63
2022/12/03 05:56:57;;;;;;;17.70;13.40;;;;;;;2.75;100.00;96465.09;5064941;28;20216;-62
2022/12/03 05:59:23;;;;;;;17.33;14.10;;;;;;;2.79;100.00;96461.34;5056841;28;20640;-63
2022/12/03 06:01:50;;;;;;;19.53;14.63;;;;;;;2.74;100.00;96479.06;5057684;28;20226;-63
2022/12/03 06:04:18;;;;;;;17.83;13.53;;;;;;;2.74;100.00;96473.84;5064224;28;20206;-63
2022/12/03 06:06:44;;;;;;;17.93;13.60;;;;;;;2.80;100.00;96473.44;5074222;28;20626;-63
2022/12/03 06:09:11;;;;;;;17.63;13.67;;;;;;;2.78;100.00;96471.88;5055619;28;20224;-63
2022/12/03 06:11:39;;;;;;;17.67;13.50;;;;;;;2.78;100.00;96475.34;5056583;28;20218;-62
2022/12/03 06:14:06;;;;;;;17.43;13.33;;;;;;;2.80;100.00;96473.44;5056561;28;20553;-62
2022/12/03 06:16:32;;;;;;;17.07;13.90;;;;;;;2.81;100.00;96464.69;5056541;28;20298;-63
2022/12/03 06:18:59;;;;;;;17.73;14.03;;;;;;;2.73;100.00;96468.75;5056552;28;20539;-63
2022/12/03 06:21:28;;;;;;;16.27;12.63;;;;;;;2.74;100.00;96463.41;5060079;28;20273;-63
2022/12/03 06:23:54;;;;;;;17.77;13.50;;;;;;;2.76;100.00;96466.78;5056857;28;20218;-62
2022/12/03 06:26:22;;;;;;;17.40;13.50;;;;;;;2.85;100.00;96460.94;5056668;28;20302;-64
2022/12/03 06:28:49;;;;;;;18.47;13.63;;;;;;;2.84;100.00;96461.88;5056267;28;20207;-63
2022/12/03 06:31:15;;;;;;;17.60;13.77;;;;;;;2.81;100.00;96453.41;5056097;28;20222;-61
2022/12/03 06:33:42;;;;;;;17.87;13.20;;;;;;;2.79;100.00;96455.28;5062319;28;20214;-61
2022/12/03 06:36:09;;;;;;;16.30;12.30;;;;;;;2.68;100.00;96474.25;5059247;28;20241;-62
2022/12/03 06:38:37;;;;;;;15.87;13.30;;;;;;;2.70;100.00;96461.94;5056303;28;20548;-63
2022/12/03 06:41:03;;;;;;;15.63;12.07;;;;;;;2.66;100.00;96464.88;5059283;28;20206;-63
2022/12/03 06:43:31;;;;;;;17.00;13.40;;;;;;;2.73;100.00;96456.50;5065654;28;20234;-63
2022/12/03 06:45:57;;;;;;;17.10;13.43;;;;;;;2.71;100.00;96458.41;5055832;28;20298;-63
2022/12/03 06:48:24;;;;;;;18.27;12.80;;;;;;;2.77;100.00;96457.16;5056093;28;20213;-62
2022/12/03 06:50:51;;;;;;;16.53;13.70;;;;;;;2.72;100.00;96449.63;5055139;28;20612;-63
2022/12/03 06:53:18;;;;;;;15.73;13.40;;;;;;;2.76;100.00;96456.34;5055839;28;20203;-62
2022/12/03 06:55:46;;;;;;;18.13;13.90;;;;;;;2.79;100.00;96461.34;5058392;28;20223;-62
2022/12/03 06:58:12;;;;;;;20.40;13.90;;;;;;;2.86;100.00;96467.84;5066414;28;20218;-63
2022/12/03 07:00:39;;;;;;;19.13;13.43;;;;;;;2.86;100.00;96461.78;5058025;28;20207;-63
2022/12/03 07:03:06;;;;;;;18.67;14.43;;;;;;;2.85;100.00;96467.94;5057784;28;20225;-63
2022/12/03 07:05:32;;;;;;;19.17;14.77;;;;;;;2.84;100.00;96469.72;5055129;28;20550;-62
2022/12/03 07:07:59;;;;;;;16.10;13.00;;;;;;;2.92;100.00;96472.66;5054993;28;20207;-63
2022/12/03 07:10:25;;;;;;;19.27;13.83;;;;;;;2.89;100.00;96466.81;5055710;28;20221;-62
2022/12/03 07:12:53;;;;;;;18.37;14.10;;;;;;;2.86;100.00;96462.63;5058577;28;20777;-63
2022/12/03 07:15:20;;;;;;;18.83;14.03;;;;;;;2.95;100.00;96469.84;5055331;28;20211;-63
2022/12/03 07:17:47;;;;;;;20.20;13.87;;;;;;;2.87;100.00;96463.47;5055132;28;20213;-63
2022/12/03 07:20:13;;;;;;;18.30;14.33;;;;;;;2.88;100.00;96465.97;5059427;28;20217;-63
2022/12/03 07:22:40;;;;;;;17.70;13.47;;;;;;;2.77;100.00;96468.44;5059394;28;20227;-66
2022/12/03 07:25:08;;;;;;;16.90;13.17;;;;;;;2.74;100.00;96462.56;5056784;28;20636;-62
2022/12/03 07:27:35;;;;;;;16.10;13.27;;;;;;;2.69;100.00;96457.66;5059981;28;20210;-62
2022/12/03 07:30:03;;;;;;;15.90;12.57;;;;;;;2.81;100.00;96467.31;5067905;28;20207;-63
2022/12/03 07:32:29;;;;;;;16.17;11.90;;;;;;;2.85;100.00;96455.72;5054924;28;20213;-63
2022/12/03 07:34:56;;;;;;;16.47;12.83;;;;;;;2.80;100.00;96460.41;5061441;28;20213;-64
2022/12/03 07:37:23;;;;;;;15.00;11.30;;;;;;;2.87;100.00;96455.63;5058650;28;20234;-62
2022/12/03 07:39:51;;;;;;;15.53;12.80;;;;;;;2.88;100.00;96454.66;5054394;28;20218;-63
2022/12/03 07:42:17;;;;;;;15.47;12.10;;;;;;;2.85;100.00;96453.09;5058551;28;20306;-62
2022/12/03 07:44:44;;;;;;;14.53;12.27;;;;;;;2.91;100.00;96450.09;5068260;28;20214;-62
2022/12/03 07:47:12;;;;;;;15.33;12.37;;;;;;;2.94;100.00;96444.66;5054980;28;20214;-61
2022/12/03 07:49:38;;;;;;;16.93;12.57;;;;;;;2.81;100.00;96454.25;5054822;28;20226;-62
2022/12/03 07:52:06;;;;;;;14.27;11.63;;;;;;;2.85;100.00;96450.50;5054557;28;20222;-63
2022/12/03 07:54:34;;;;;;;15.77;11.93;;;;;;;2.96;100.00;96452.41;5054808;28;20267;-63
2022/12/03 07:57:01;;;;;;;14.23;11.97;;;;;;;2.94;100.00;96470.78;5054547;28;20207;-62
2022/12/03 07:59:28;;;;;;;14.80;11.97;;;;;;;2.95;100.00;96469.84;5055064;28;20217;-64
2022/12/03 08:01:55;;;;;;;17.23;12.33;;;;;;;2.88;100.00;96465.13;5056186;28;20218;-63
2022/12/03 08:04:23;;;;;;;17.77;13.23;;;;;;;2.95;100.00;96458.56;5061120;28;20210;-62
2022/12/03 08:06:49;;;;;;;17.20;13.17;;;;;;;2.99;100.00;96458.25;5061427;28;20221;-63
2022/12/03 08:09:16;;;;;;;17.27;13.23;;;;;;;3.04;100.00;96454.50;5061092;28;20209;-63
2022/12/03 08:11:43;;;;;;;16.20;12.47;;;;;;;3.08;100.00;96463.81;5060960;28;20631;-62
2022/12/03 08:14:12;;;;;;;17.20;13.33;;;;;;;3.08;100.00;96464.66;5061462;28;20701;-61
2022/12/03 08:16:39;;;;;;;19.27;13.67;;;;;;;3.17;100.00;96460.59;5061631;28;20206;-62
2022/12/03 08:19:09;;;;;;;16.10;13.13;;;;;;;3.12;100.00;96462.69;5063356;28;20203;-61
2022/12/03 08:21:37;;;;;;;17.37;13.43;;;;;;;3.10;100.00;96460.16;5072706;28;20206;-62
2022/12/03 08:24:13;;;;;;;17.20;13.47;;;;;;;3.07;100.00;96452.53;5061201;28;20237;-63
2022/12/03 08:26:40;;;;;;;18.63;13.97;;;;;;;3.01;100.00;96451.16;5061658;28;20202;-62
2022/12/03 08:29:10;;;;;;;17.60;13.40;;;;;;;3.01;100.00;96455.56;5061022;28;20214;-62
2022/12/03 08:31:37;;;;;;;17.40;13.23;;;;;;;2.96;100.00;96453.25;5061712;28;20206;-61
2022/12/03 08:34:16;;;;;;;17.00;13.67;;;;;;;2.96;100.00;96457.63;5063426;28;20632;-62
2022/12/03 08:36:45;;;;;;;17.27;13.00;;;;;;;2.98;100.00;96451.34;5075272;28;20671;-62
2022/12/03 08:39:32;;;;;;;15.57;12.50;;;;;;;3.06;100.00;96452.63;5073082;28;20203;-61
2022/12/03 08:44:53;;;;;;;16.13;12.17;;;;;;;2.92;100.00;96457.00;5065848;28;20233;-63
2022/12/03 08:47:22;;;;;;;16.50;12.47;;;;;;;2.99;100.00;96453.03;5065741;28;20202;-63
2022/12/03 08:49:53;;;;;;;16.27;12.23;;;;;;;3.00;100.00;96459.94;5069728;28;20626;-63
2022/12/03 08:52:23;;;;;;;15.90;12.80;;;;;;;2.99;100.00;96453.03;5062359;28;20203;-63
2022/12/03 08:54:52;;;;;;;15.07;11.87;;;;;;;3.01;100.00;96451.16;5066830;28;20207;-63
2022/12/03 08:57:25;;;;;;;15.23;11.83;;;;;;;2.99;100.00;96446.97;5062868;28;20222;-62
2022/12/03 08:59:55;;;;;;;15.87;11.67;;;;;;;2.96;100.00;96453.25;5061357;28;20269;-62
2022/12/03 09:02:27;;;;;;;14.63;11.20;;;;;;;3.05;100.00;96451.78;5061179;28;20230;-64
2022/12/03 09:04:54;;;;;;;15.20;11.50;;;;;;;2.97;100.00;96449.69;5060712;28;20210;-64
2022/12/03 09:07:22;;;;;;;15.80;11.03;;;;;;;2.97;100.00;96447.09;5061380;28;20211;-62
2022/12/03 09:09:48;;;;;;;16.17;12.13;;;;;;;2.88;100.00;96455.50;5065222;28;20218;-64
2022/12/03 09:12:15;;;;;;;17.37;12.43;;;;;;;2.92;100.00;96450.94;5060925;28;20203;-63
2022/12/03 09:14:41;;;;;;;14.27;11.43;;;;;;;2.90;100.00;96453.66;5062511;28;20226;-64
2022/12/03 09:17:09;;;;;;;15.63;12.53;;;;;;;3.03;100.00;96447.59;5071577;28;20218;-64
2022/12/03 09:19:36;;;;;;;14.70;12.03;;;;;;;3.00;100.00;96449.50;5070563;28;20210;-64
2022/12/03 09:22:02;;;;;;;15.93;12.23;;;;;;;2.93;100.00;96442.16;5060228;28;20202;-64
2022/12/03 09:24:30;;;;;;;15.87;12.60;;;;;;;2.94;100.00;96444.66;5065539;28;20642;-62
2022/12/03 09:26:57;;;;;;;15.27;12.17;;;;;;;2.99;100.00;96437.38;5057825;28;20207;-64
2022/12/03 09:29:23;;;;;;;14.60;11.87;;;;;;;3.06;100.00;96447.41;5057266;28;20221;-64
2022/12/03 09:31:50;;;;;;;16.70;12.53;;;;;;;3.05;100.00;96443.13;5057552;28;20210;-64
2022/12/03 09:34:16;;;;;;;15.27;12.23;;;;;;;3.12;100.00;96441.78;5056991;28;20214;-65
2022/12/03 09:36:43;;;;;;;16.47;12.70;;;;;;;3.17;100.00;96439.69;5066461;28;20276;-65
2022/12/03 09:39:10;;;;;;;17.90;13.13;;;;;;;3.11;100.00;96443.56;5078501;28;20212;-64
2022/12/03 09:41:38;;;;;;;15.60;12.00;;;;;;;3.04;100.00;96434.44;5080536;28;20507;-64
2022/12/03 09:44:05;;;;;;;15.00;11.70;;;;;;;3.17;100.00;96439.69;5073364;28;20685;-64
2022/12/03 09:46:32;;;;;;;17.50;13.07;;;;;;;3.09;100.00;96440.19;5062171;28;20654;-63
2022/12/03 09:49:00;;;;;;;15.30;12.00;;;;;;;3.10;100.00;96438.41;5063560;28;20203;-64
2022/12/03 09:51:30;;;;;;;14.67;11.83;;;;;;;3.21;100.00;96431.53;5060720;28;20635;-64
2022/12/03 09:53:58;;;;;;;13.27;11.70;;;;;;;3.17;100.00;96429.22;5059098;28;20198;-64
2022/12/03 09:56:24;;;;;;;16.90;12.67;;;;;;;3.16;100.00;96428.38;5057155;28;20207;-63
2022/12/03 09:58:53;;;;;;;15.07;12.33;;;;;;;3.10;100.00;96423.59;5057592;28;20620;-65
2022/12/03 10:01:20;;;;;;;14.63;11.67;;;;;;;3.15;100.00;96423.28;5057658;28;20658;-63
2022/12/03 10:03:49;;;;;;;17.67;12.30;;;;;;;3.14;100.00;96435.50;5070729;28;20254;-63
2022/12/03 10:06:17;;;;;;;13.20;11.40;;;;;;;3.18;100.00;96420.47;5055289;28;20686;-62
2022/12/03 10:08:47;;;;;;;14.27;10.77;;;;;;;3.32;100.00;96415.13;5063529;28;20658;-65
2022/12/03 10:11:13;;;;;;;13.93;11.33;;;;;;;3.25;100.00;96421.72;5063667;28;20626;-63
2022/12/03 10:13:40;;;;;;;14.67;11.73;;;;;;;3.29;100.00;96417.97;5059643;28;20210;-62
2022/12/03 10:16:11;;;;;;;14.07;11.77;;;;;;;3.35;100.00;96420.16;5056720;28;20214;-64
2022/12/03 10:18:40;;;;;;;13.80;11.17;;;;;;;3.35;100.00;96413.16;5056625;28;20202;-64
2022/12/03 10:21:12;;;;;;;13.83;11.93;;;;;;;3.34;100.00;96411.47;5060049;28;20210;-64
2022/12/03 10:23:42;;;;;;;15.67;11.60;;;;;;;3.41;100.00;96397.03;5057218;28;20211;-64
2022/12/03 10:26:08;;;;;;;14.43;11.30;;;;;;;3.46;100.00;96399.34;5056156;28;20211;-63
2022/12/03 10:28:36;;;;;;;15.10;11.47;;;;;;;3.45;100.00;96385.44;5069628;28;20210;-62
2022/12/03 10:31:05;;;;;;;15.93;12.67;;;;;;;3.39;100.00;96377.19;5056121;28;20207;-62
2022/12/03 10:33:35;;;;;;;14.53;11.47;;;;;;;3.48;100.00;96376.53;5056524;28;20222;-61
2022/12/03 10:36:16;;;;;;;16.13;11.83;;;;;;;3.56;100.00;96379.47;5061693;28;20209;-62
2022/12/03 10:38:43;;;;;;;14.67;11.37;;;;;;;3.61;100.00;96376.53;5056124;28;20197;-63
2022/12/03 10:41:21;;;;;;;14.57;11.77;;;;;;;3.45;100.00;96366.31;5057526;28;20203;-63
2022/12/03 10:43:47;;;;;;;17.43;12.67;;;;;;;3.53;100.00;96364.00;5055860;28;20265;-63
2022/12/03 10:46:17;;;;;;;15.57;12.63;;;;;;;3.58;100.00;96369.72;5056031;28;20214;-62
2022/12/03 10:48:45;;;;;;;16.23;11.80;;;;;;;3.50;100.00;96359.00;5065635;28;20210;-61
2022/12/03 10:51:19;;;;;;;14.30;11.30;;;;;;;3.61;100.00;96366.91;5057338;28;20536;-64
2022/12/03 10:53:46;;;;;;;16.13;12.97;;;;;;;3.57;100.00;96348.94;5056316;28;20217;-63
2022/12/03 10:56:24;;;;;;;15.80;13.27;;;;;;;3.48;100.00;96342.56;5056021;28;20207;-63
2022/12/03 10:58:50;;;;;;;16.50;12.23;;;;;;;3.52;100.00;96344.00;5056282;28;20230;-63
2022/12/03 11:01:20;;;;;;;15.80;12.43;;;;;;;3.77;100.00;96348.34;5055991;28;20203;-64
2022/12/03 11:03:48;;;;;;;15.67;12.40;;;;;;;3.84;100.00;96342.59;5068806;28;20663;-62
2022/12/03 11:06:16;;;;;;;15.97;11.47;;;;;;;3.84;100.00;96346.97;5054737;28;20229;-62
2022/12/03 11:08:44;;;;;;;15.10;12.07;;;;;;;3.98;100.00;96344.19;5061162;28;20230;-63
2022/12/03 11:11:17;;;;;;;15.83;11.90;;;;;;;3.94;100.00;96332.28;5062995;28;20590;-63
2022/12/03 11:13:49;;;;;;;17.87;12.73;;;;;;;3.91;100.00;96341.19;5064480;28;20191;-59
2022/12/03 11:17:01;;;;;;;14.60;11.70;;;;;;;3.92;100.00;96340.25;5055904;28;20207;-61
2022/12/03 11:19:45;;;;;;;15.53;12.53;;;;;;;3.80;100.00;96335.91;5058500;28;20207;-60
2022/12/03 11:22:40;;;;;;;15.03;11.57;;;;;;;3.81;100.00;96340.19;5058716;28;20209;-60
2022/12/03 11:25:45;;;;;;;16.20;12.30;;;;;;;3.73;100.00;96334.66;5058366;28;20268;-60
2022/12/03 11:28:31;;;;;;;13.73;11.57;;;;;;;3.76;100.00;96334.44;5055117;28;20234;-61
2022/12/03 11:31:01;;;;;;;15.10;11.50;;;;;;;3.67;100.00;96332.50;5055574;28;20236;-61
2022/12/03 11:33:35;;;;;;;16.90;12.57;;;;;;;3.62;100.00;96325.91;5061105;28;20657;-60
2022/12/03 11:36:18;;;;;;;16.00;11.47;;;;;;;3.47;100.00;96333.06;5070306;28;20599;-60
2022/12/03 11:38:56;;;;;;;15.47;12.70;;;;;;;3.51;100.00;96335.34;5055138;28;20198;-60
2022/12/03 11:41:29;;;;;;;16.50;12.50;;;;;;;3.48;100.00;96329.50;5061707;28;20571;-60
2022/12/03 11:44:06;;;;;;;12.70;10.93;;;;;;;3.44;100.00;96322.81;5061424;28;20229;-59
2022/12/03 11:46:41;;;;;;;14.53;11.73;;;;;;;3.39;100.00;96322.31;5055345;28;20210;-62
2022/12/03 11:49:28;;;;;;;14.50;11.33;;;;;;;3.34;100.00;96321.78;5058224;28;20213;-61